createdAt,value
2022-12-09T00:00:24.463Z,0.00
2022-12-09T00:01:24.829Z,0.00
2022-12-09T00:02:24.536Z,0.00
2022-12-09T00:03:24.732Z,0.00
2022-12-09T00:04:24.948Z,0.00
2022-12-09T00:05:24.587Z,0.00
2022-12-09T00:06:24.367Z,0.00
2022-12-09T00:07:24.434Z,0.00
2022-12-09T00:08:24.622Z,0.00
2022-12-09T00:09:24.334Z,0.00
2022-12-09T00:10:24.323Z,0.00
2022-12-09T00:11:24.345Z,0.00
2022-12-09T00:12:24.303Z,0.00
2022-12-09T00:13:24.288Z,0.00
2022-12-09T00:14:24.512Z,0.00
2022-12-09T00:15:24.442Z,0.00
2022-12-09T00:16:24.318Z,0.00
2022-12-09T00:17:24.382Z,0.00
2022-12-09T00:18:24.328Z,0.00
2022-12-09T00:19:24.199Z,0.00
2022-12-09T00:20:24.194Z,0.00
2022-12-09T00:21:25.158Z,0.00
2022-12-09T00:22:24.250Z,0.00
2022-12-09T00:23:24.276Z,0.00
2022-12-09T00:24:24.131Z,0.00
2022-12-09T00:25:24.111Z,0.00
2022-12-09T00:26:24.115Z,0.00
2022-12-09T00:27:24.111Z,0.00
2022-12-09T00:28:24.181Z,0.00
2022-12-09T00:29:24.091Z,0.00
2022-12-09T00:30:24.075Z,0.00
2022-12-09T00:31:24.119Z,0.00
2022-12-09T00:32:24.064Z,0.00
2022-12-09T00:33:24.023Z,0.00
2022-12-09T00:34:24.219Z,0.00
2022-12-09T00:35:25.165Z,0.00
2022-12-09T00:36:24.232Z,0.00
2022-12-09T00:37:23.978Z,0.00
2022-12-09T00:38:23.981Z,0.00
2022-12-09T02:32:00.518Z,0.00
2022-12-09T02:47:24.655Z,0.08
2022-12-09T02:52:41.621Z,0.00
2022-12-09T02:52:59.497Z,0.00
2022-12-09T02:54:07.539Z,0.00
2022-12-09T02:55:21.063Z,0.00
2022-12-09T02:56:19.411Z,0.00
2022-12-09T02:58:00.666Z,0.00
2022-12-09T03:05:09.467Z,2.44
2022-12-09T03:05:40.640Z,0.04
2022-12-09T03:07:12.615Z,0.00
2022-12-09T03:08:15.063Z,0.00
2022-12-09T03:20:02.269Z,0.76
2022-12-09T03:21:33.994Z,0.00
2022-12-09T03:22:11.089Z,0.00
2022-12-09T03:22:39.289Z,0.00
2022-12-09T03:23:43.199Z,0.00
2022-12-09T03:24:39.092Z,0.00
2022-12-09T03:25:39.172Z,0.00
2022-12-09T03:26:39.178Z,0.00
2022-12-09T03:27:42.375Z,0.00
2022-12-09T03:28:42.272Z,0.00
2022-12-09T03:29:49.267Z,0.00
2022-12-09T03:30:41.494Z,0.00
2022-12-09T03:31:41.265Z,0.00
2022-12-09T03:32:40.366Z,0.08
2022-12-09T03:33:51.361Z,0.04
2022-12-09T03:34:43.824Z,0.00
2022-12-09T03:35:38.657Z,0.08
2022-12-09T03:37:09.757Z,0.00
2022-12-09T03:37:42.887Z,0.04
2022-12-09T03:38:53.567Z,0.00
2022-12-09T03:39:59.182Z,0.00
2022-12-09T03:40:38.785Z,0.00
2022-12-09T03:41:39.348Z,0.00
2022-12-09T03:42:46.194Z,0.00
2022-12-09T03:45:09.396Z,0.00
2022-12-09T03:45:32.689Z,0.00
2022-12-09T03:46:31.434Z,0.00
2022-12-09T03:47:38.124Z,0.00
2022-12-09T03:48:19.085Z,0.00
2022-12-09T03:49:16.181Z,0.00
2022-12-09T03:50:17.073Z,0.00
2022-12-09T03:51:17.811Z,0.00
2022-12-09T03:52:15.547Z,0.00
2022-12-09T03:53:14.297Z,0.00
2022-12-09T03:54:15.883Z,0.00
2022-12-09T03:55:14.524Z,0.00
2022-12-09T03:56:14.299Z,0.00
2022-12-09T03:57:18.441Z,0.00
2022-12-09T03:58:15.144Z,0.00
2022-12-09T03:59:16.187Z,0.00
2022-12-09T04:00:14.669Z,0.00
2022-12-09T04:01:14.554Z,0.00
2022-12-09T04:02:14.316Z,0.00
2022-12-09T04:03:14.122Z,0.00
2022-12-09T04:04:18.638Z,0.00
2022-12-09T04:05:14.023Z,0.00
2022-12-09T04:06:14.194Z,0.00
2022-12-09T04:07:13.872Z,0.00
2022-12-09T04:08:15.347Z,0.00
2022-12-09T04:09:14.394Z,0.00
2022-12-09T04:10:13.905Z,0.00
2022-12-09T04:11:13.833Z,0.00
2022-12-09T04:12:14.571Z,0.00
2022-12-09T04:13:13.834Z,0.00
2022-12-09T04:14:15.730Z,0.00
2022-12-09T04:15:13.901Z,0.00
2022-12-09T04:16:14.023Z,0.00
2022-12-09T04:17:13.839Z,0.00
2022-12-09T04:18:13.897Z,0.00
2022-12-09T04:19:13.840Z,0.00
2022-12-09T04:20:14.042Z,0.00
2022-12-09T04:21:13.928Z,0.00
2022-12-09T04:22:13.977Z,0.00
2022-12-09T04:23:13.997Z,0.00
2022-12-09T04:24:13.664Z,0.00
2022-12-09T04:25:14.442Z,0.00
2022-12-09T04:26:13.644Z,0.00
2022-12-09T04:27:13.883Z,0.00
2022-12-09T04:28:13.933Z,0.00
2022-12-09T04:29:13.851Z,0.00
2022-12-09T04:30:13.934Z,0.00
2022-12-09T04:31:13.755Z,0.00
2022-12-09T04:32:13.655Z,0.00
2022-12-09T04:33:13.935Z,0.00
2022-12-09T04:34:13.533Z,0.00
2022-12-09T04:35:14.465Z,0.00
2022-12-09T04:36:13.533Z,0.00
2022-12-09T04:37:13.759Z,0.00
2022-12-09T04:38:13.485Z,0.00
2022-12-09T04:39:14.530Z,0.00
2022-12-09T04:40:18.078Z,0.00
2022-12-09T04:41:14.575Z,0.00
2022-12-09T04:42:13.694Z,0.00
2022-12-09T04:43:13.488Z,0.00
2022-12-09T04:44:13.536Z,0.00
2022-12-09T04:45:13.752Z,0.00
2022-12-09T04:46:13.672Z,0.00
2022-12-09T04:47:13.497Z,0.00
2022-12-09T04:48:13.358Z,0.00
2022-12-09T04:49:13.332Z,0.00
2022-12-09T04:50:14.101Z,0.00
2022-12-09T04:51:13.691Z,0.00
2022-12-09T04:52:13.338Z,0.00
2022-12-09T04:53:13.325Z,0.00
2022-12-09T04:54:13.281Z,0.00
2022-12-09T04:55:13.300Z,0.00
2022-12-09T04:56:13.270Z,0.00
2022-12-09T04:57:13.248Z,0.00
2022-12-09T04:58:13.231Z,0.00
2022-12-09T04:59:13.461Z,0.00
2022-12-09T05:00:14.134Z,0.00
2022-12-09T05:01:13.236Z,0.00
2022-12-09T05:02:13.524Z,0.00
2022-12-09T05:03:13.587Z,0.00
2022-12-09T05:04:13.246Z,0.00
2022-12-09T05:05:13.291Z,0.00
2022-12-09T05:06:13.488Z,0.00
2022-12-09T05:07:13.215Z,0.00
2022-12-09T05:08:13.303Z,0.00
2022-12-09T05:09:13.448Z,0.00
2022-12-09T05:10:13.675Z,0.00
2022-12-09T05:11:13.345Z,0.00
2022-12-09T05:12:13.129Z,0.00
2022-12-09T05:13:13.100Z,0.00
2022-12-09T05:14:13.113Z,0.00
2022-12-09T05:15:13.254Z,0.00
2022-12-09T05:16:16.443Z,0.00
2022-12-09T05:17:13.055Z,0.00
2022-12-09T05:18:13.431Z,0.00
2022-12-09T05:19:13.056Z,0.00
2022-12-09T05:20:13.338Z,0.00
2022-12-09T05:21:13.143Z,0.00
2022-12-09T05:22:12.953Z,0.00
2022-12-09T05:23:13.860Z,0.00
2022-12-09T05:24:13.070Z,0.00
2022-12-09T05:25:13.294Z,0.00
2022-12-09T05:26:13.144Z,0.00
2022-12-09T05:27:13.147Z,0.00
2022-12-09T05:28:12.943Z,0.04
2022-12-09T05:29:15.564Z,0.00
2022-12-09T05:30:14.598Z,0.00
2022-12-09T05:31:13.129Z,0.00
2022-12-09T05:32:13.187Z,0.00
2022-12-09T05:33:13.107Z,0.00
2022-12-09T05:34:13.091Z,0.00
2022-12-09T05:35:13.162Z,0.00
2022-12-09T05:36:13.095Z,0.00
2022-12-09T05:37:12.935Z,0.00
2022-12-09T05:38:12.869Z,0.00
2022-12-09T05:39:12.827Z,0.00
2022-12-09T05:40:13.186Z,0.00
2022-12-09T05:41:12.803Z,0.00
2022-12-09T05:42:12.753Z,0.00
2022-12-09T05:43:12.732Z,0.00
2022-12-09T05:44:12.894Z,0.00
2022-12-09T05:45:12.631Z,0.00
2022-12-09T05:46:13.007Z,0.00
2022-12-09T05:47:12.879Z,0.04
2022-12-09T05:48:12.719Z,0.00
2022-12-09T05:49:12.798Z,0.00
2022-12-09T05:50:13.409Z,0.00
2022-12-09T05:51:13.068Z,0.00
2022-12-09T05:52:12.672Z,0.00
2022-12-09T05:53:12.834Z,0.00
2022-12-09T05:54:12.776Z,0.00
2022-12-09T05:55:12.861Z,0.00
2022-12-09T05:56:13.142Z,0.00
2022-12-09T05:57:12.490Z,0.00
2022-12-09T05:58:12.694Z,0.00
2022-12-09T05:59:13.261Z,0.00
2022-12-09T06:00:17.226Z,0.00
2022-12-09T06:01:14.273Z,0.00
2022-12-09T06:02:21.092Z,0.00
2022-12-09T06:03:14.546Z,0.00
2022-12-09T06:04:12.836Z,0.00
2022-12-09T06:05:14.636Z,0.00
2022-12-09T06:13:37.748Z,0.00
2022-12-09T06:13:45.444Z,0.00
2022-12-09T06:14:42.731Z,0.00
2022-12-09T06:15:42.560Z,0.00
2022-12-09T06:16:42.599Z,0.00
2022-12-09T06:17:42.664Z,0.00
2022-12-09T06:18:42.791Z,0.00
2022-12-09T06:19:42.531Z,0.00
2022-12-09T06:20:42.569Z,0.00
2022-12-09T06:21:42.473Z,0.04
2022-12-09T06:22:42.509Z,0.16
2022-12-09T06:23:42.823Z,0.00
2022-12-09T06:24:42.705Z,0.04
2022-12-09T06:25:42.347Z,0.00
2022-12-09T06:26:42.942Z,0.04
2022-12-09T06:27:42.337Z,0.00
2022-12-09T06:28:42.321Z,0.00
2022-12-09T06:29:42.417Z,0.00
2022-12-09T06:30:42.278Z,0.00
2022-12-09T06:31:42.287Z,0.00
2022-12-09T06:32:42.461Z,0.00
2022-12-09T06:33:58.756Z,0.00
2022-12-09T06:34:43.901Z,0.00
2022-12-09T06:35:42.546Z,0.00
2022-12-09T06:36:42.287Z,0.20
2022-12-09T06:37:42.355Z,0.48
2022-12-09T06:38:42.590Z,0.24
2022-12-09T06:39:42.440Z,0.48
2022-12-09T06:40:42.491Z,0.12
2022-12-09T06:41:42.319Z,0.00
2022-12-09T06:42:42.487Z,0.24
2022-12-09T06:43:42.651Z,0.12
2022-12-09T06:44:42.589Z,0.60
2022-12-09T06:45:42.281Z,0.08
2022-12-09T06:46:42.183Z,0.00
2022-12-09T06:47:42.172Z,0.00
2022-12-09T06:48:42.634Z,0.00
2022-12-09T06:49:42.108Z,0.04
2022-12-09T06:50:42.171Z,0.00
2022-12-09T06:51:42.178Z,0.00
2022-12-09T06:52:42.233Z,0.00
2022-12-09T06:53:42.336Z,0.00
2022-12-09T06:54:41.991Z,0.16
2022-12-09T06:55:42.151Z,0.16
2022-12-09T06:56:41.948Z,0.00
2022-12-09T06:57:41.959Z,0.20
2022-12-09T06:58:42.284Z,0.36
2022-12-09T06:59:42.202Z,0.48
2022-12-09T07:00:42.105Z,0.16
2022-12-09T07:01:42.207Z,0.36
2022-12-09T07:02:42.633Z,0.32
2022-12-09T07:03:42.009Z,0.00
2022-12-09T07:04:42.811Z,0.00
2022-12-09T07:05:42.418Z,0.00
2022-12-09T07:06:41.938Z,0.00
2022-12-09T07:07:41.943Z,0.00
2022-12-09T07:08:41.842Z,0.00
2022-12-09T07:09:41.988Z,0.00
2022-12-09T07:10:41.888Z,0.00
2022-12-09T07:11:42.214Z,0.00
2022-12-09T07:12:41.856Z,0.00
2022-12-09T07:13:41.750Z,0.12
2022-12-09T07:14:41.808Z,0.20
2022-12-09T07:15:41.732Z,0.40
2022-12-09T07:16:42.112Z,0.16
2022-12-09T07:17:42.084Z,0.00
2022-12-09T07:18:42.171Z,0.00
2022-12-09T07:19:41.685Z,0.00
2022-12-09T07:20:41.688Z,0.00
2022-12-09T07:21:41.804Z,0.00
2022-12-09T07:22:41.953Z,0.00
2022-12-09T07:23:41.619Z,0.00
2022-12-09T07:24:41.953Z,0.00
2022-12-09T07:25:42.045Z,0.00
2022-12-09T07:26:41.975Z,0.00
2022-12-09T07:27:41.709Z,0.00
2022-12-09T07:28:41.845Z,0.00
2022-12-09T07:29:41.477Z,0.00
2022-12-09T07:30:41.495Z,0.00
2022-12-09T07:31:41.595Z,0.00
2022-12-09T07:32:41.570Z,0.04
2022-12-09T07:33:41.469Z,0.00
2022-12-09T07:34:41.571Z,0.08
2022-12-09T07:35:41.684Z,0.00
2022-12-09T07:36:41.501Z,0.00
2022-12-09T07:37:41.405Z,0.00
2022-12-09T07:38:41.605Z,0.00
2022-12-09T07:39:41.814Z,0.00
2022-12-09T07:40:41.798Z,0.00
2022-12-09T07:41:41.417Z,0.00
2022-12-09T07:42:41.697Z,0.00
2022-12-09T07:43:41.622Z,0.00
2022-12-09T07:44:41.382Z,0.00
2022-12-09T07:45:41.794Z,0.40
2022-12-09T07:46:41.445Z,0.56
2022-12-09T07:47:41.591Z,0.44
2022-12-09T07:48:41.659Z,0.00
2022-12-09T07:49:41.484Z,0.20
2022-12-09T07:50:41.543Z,0.64
2022-12-09T07:51:41.459Z,0.12
2022-12-09T07:52:41.523Z,0.00
2022-12-09T07:53:41.307Z,0.08
2022-12-09T07:54:41.382Z,0.20
2022-12-09T07:55:41.319Z,0.12
2022-12-09T07:56:41.453Z,0.04
2022-12-09T07:57:41.220Z,0.00
2022-12-09T07:58:41.107Z,0.00
2022-12-09T07:59:41.568Z,0.12
2022-12-09T08:00:41.547Z,0.12
2022-12-09T08:01:41.450Z,0.24
2022-12-09T08:02:41.050Z,0.28
2022-12-09T08:03:41.125Z,0.04
2022-12-09T08:04:41.716Z,0.44
2022-12-09T08:05:41.512Z,0.36
2022-12-09T08:06:41.409Z,0.68
2022-12-09T08:07:44.597Z,0.28
2022-12-09T08:08:41.311Z,0.12
2022-12-09T08:09:41.321Z,0.00
2022-12-09T08:10:41.118Z,0.04
2022-12-09T08:11:41.108Z,0.08
2022-12-09T08:12:41.286Z,0.00
2022-12-09T08:13:41.131Z,0.00
2022-12-09T08:14:42.144Z,0.00
2022-12-09T08:15:41.500Z,0.00
2022-12-09T08:16:41.595Z,0.00
2022-12-09T08:17:41.239Z,0.28
2022-12-09T08:18:41.273Z,0.60
2022-12-09T08:19:41.222Z,0.24
2022-12-09T08:20:41.124Z,0.40
2022-12-09T08:21:41.005Z,0.00
2022-12-09T08:22:41.338Z,0.12
2022-12-09T08:23:41.094Z,0.00
2022-12-09T08:24:40.913Z,0.00
2022-12-09T08:25:40.943Z,0.00
2022-12-09T08:26:41.087Z,0.28
2022-12-09T08:27:40.968Z,0.04
2022-12-09T08:28:41.176Z,0.00
2022-12-09T08:29:40.916Z,0.00
2022-12-09T08:30:40.901Z,0.00
2022-12-09T08:31:42.156Z,0.04
2022-12-09T08:32:41.735Z,0.00
2022-12-09T08:33:40.764Z,0.00
2022-12-09T08:34:41.128Z,0.04
2022-12-09T08:35:40.631Z,0.04
2022-12-09T08:36:40.871Z,0.00
2022-12-09T08:37:40.707Z,0.00
2022-12-09T08:38:40.758Z,0.00
2022-12-09T08:39:40.728Z,0.00
2022-12-09T08:40:40.857Z,0.00
2022-12-09T08:41:41.051Z,0.00
2022-12-09T08:42:40.579Z,0.00
2022-12-09T08:43:40.770Z,0.16
2022-12-09T08:44:40.858Z,0.00
2022-12-09T08:45:40.873Z,0.00
2022-12-09T08:46:40.991Z,0.00
2022-12-09T08:47:40.519Z,0.00
2022-12-09T08:48:40.784Z,0.00
2022-12-09T08:49:40.541Z,0.00
2022-12-09T08:50:40.785Z,0.00
2022-12-09T08:51:40.571Z,0.00
2022-12-09T08:52:41.405Z,0.08
2022-12-09T08:53:40.788Z,0.04
2022-12-09T08:54:40.723Z,0.24
2022-12-09T08:55:40.786Z,0.24
2022-12-09T08:56:40.387Z,0.72
2022-12-09T08:57:40.473Z,0.60
2022-12-09T08:58:40.386Z,0.08
2022-12-09T08:59:45.226Z,0.20
2022-12-09T09:00:40.541Z,0.28
2022-12-09T09:01:40.641Z,0.00
2022-12-09T09:02:40.484Z,0.72
2022-12-09T09:03:40.795Z,0.32
2022-12-09T09:04:40.583Z,1.20
2022-12-09T09:05:40.611Z,0.88
2022-12-09T09:06:40.557Z,1.28
2022-12-09T09:07:40.777Z,0.48
2022-12-09T09:08:40.209Z,2.12
2022-12-09T09:09:40.441Z,1.96
2022-12-09T09:10:40.668Z,2.92
2022-12-09T09:11:40.458Z,1.64
2022-12-09T09:12:43.480Z,2.08
2022-12-09T09:13:40.155Z,3.16
2022-12-09T09:14:40.446Z,3.56
2022-12-09T09:15:40.525Z,1.36
2022-12-09T09:16:40.626Z,0.92
2022-12-09T09:17:40.350Z,0.36
2022-12-09T09:18:40.163Z,2.88
2022-12-09T09:19:40.176Z,2.36
2022-12-09T09:20:40.249Z,2.16
2022-12-09T09:21:41.080Z,1.76
2022-12-09T09:22:40.352Z,2.84
2022-12-09T09:23:40.184Z,2.04
2022-12-09T09:24:40.336Z,2.64
2022-12-09T09:25:40.129Z,0.28
2022-12-09T09:26:39.993Z,1.64
2022-12-09T09:27:40.959Z,1.08
2022-12-09T09:28:40.009Z,1.52
2022-12-09T09:29:40.348Z,3.00
2022-12-09T09:30:40.013Z,3.24
2022-12-09T09:31:39.982Z,2.12
2022-12-09T09:32:40.511Z,5.08
2022-12-09T09:33:40.022Z,4.36
2022-12-09T09:34:40.114Z,2.76
2022-12-09T09:35:40.260Z,2.36
2022-12-09T09:36:40.288Z,2.28
2022-12-09T09:37:40.314Z,1.72
2022-12-09T09:38:41.004Z,0.16
2022-12-09T09:39:39.964Z,0.40
2022-12-09T09:40:40.076Z,1.68
2022-12-09T09:41:40.251Z,2.28
2022-12-09T09:42:39.768Z,1.08
2022-12-09T09:43:39.719Z,1.12
2022-12-09T09:44:40.157Z,1.60
2022-12-09T09:45:39.855Z,2.20
2022-12-09T09:46:39.858Z,1.04
2022-12-09T09:47:40.051Z,0.40
2022-12-09T09:48:39.830Z,1.16
2022-12-09T09:49:39.894Z,2.36
2022-12-09T09:50:39.708Z,1.32
2022-12-09T09:51:40.046Z,1.68
2022-12-09T09:52:40.099Z,2.12
2022-12-09T09:53:39.747Z,0.88
2022-12-09T09:54:40.891Z,2.28
2022-12-09T09:55:39.562Z,4.36
2022-12-09T09:56:39.734Z,4.32
2022-12-09T09:57:39.777Z,4.24
2022-12-09T09:58:40.646Z,2.32
2022-12-09T09:59:40.063Z,5.16
2022-12-09T10:00:39.714Z,3.84
2022-12-09T10:01:39.975Z,2.28
2022-12-09T10:02:39.748Z,2.28
2022-12-09T10:03:39.748Z,1.68
2022-12-09T10:04:39.672Z,4.04
2022-12-09T10:05:39.620Z,4.56
2022-12-09T10:06:39.714Z,4.28
2022-12-09T10:07:39.776Z,2.64
2022-12-09T10:08:39.802Z,2.68
2022-12-09T10:09:39.580Z,1.28
2022-12-09T10:10:39.610Z,3.60
2022-12-09T10:11:39.653Z,0.72
2022-12-09T10:12:39.628Z,1.40
2022-12-09T10:13:39.763Z,1.40
2022-12-09T10:14:39.881Z,2.08
2022-12-09T10:15:39.815Z,2.28
2022-12-09T10:16:39.658Z,1.56
2022-12-09T10:17:39.445Z,1.08
2022-12-09T10:18:39.711Z,0.76
2022-12-09T10:19:39.328Z,1.12
2022-12-09T10:20:39.423Z,3.36
2022-12-09T10:21:39.515Z,1.76
2022-12-09T10:22:39.797Z,1.52
2022-12-09T10:23:39.592Z,0.48
2022-12-09T10:24:40.736Z,1.12
2022-12-09T10:25:39.260Z,1.40
2022-12-09T10:26:39.393Z,1.04
2022-12-09T10:27:39.723Z,0.76
2022-12-09T10:28:39.203Z,1.64
2022-12-09T10:29:39.584Z,2.00
2022-12-09T10:30:44.187Z,1.12
2022-12-09T10:31:40.456Z,0.52
2022-12-09T10:32:39.269Z,0.76
2022-12-09T10:33:39.434Z,1.64
2022-12-09T10:34:39.240Z,0.64
2022-12-09T10:35:39.082Z,1.76
2022-12-09T10:36:39.406Z,0.48
2022-12-09T10:37:39.021Z,0.36
2022-12-09T10:38:39.068Z,2.60
2022-12-09T10:39:39.488Z,1.92
2022-12-09T10:40:39.016Z,4.80
2022-12-09T10:41:39.059Z,3.92
2022-12-09T10:42:39.112Z,3.20
2022-12-09T10:43:39.407Z,1.88
2022-12-09T10:44:39.035Z,2.24
2022-12-09T10:46:08.367Z,1.16
2022-12-09T10:46:40.308Z,1.16
2022-12-09T10:47:38.956Z,1.64
2022-12-09T10:48:38.992Z,2.28
2022-12-09T10:49:39.352Z,1.20
2022-12-09T10:50:38.897Z,3.32
2022-12-09T10:51:39.027Z,4.88
2022-12-09T10:52:39.158Z,4.32
2022-12-09T10:53:38.889Z,3.36
2022-12-09T10:54:39.277Z,1.56
2022-12-09T10:55:38.940Z,3.52
2022-12-09T10:56:38.802Z,4.08
2022-12-09T10:57:38.754Z,1.40
2022-12-09T10:58:38.767Z,1.20
2022-12-09T10:59:38.828Z,2.80
2022-12-09T11:00:39.041Z,2.92
2022-12-09T11:01:39.233Z,4.48
2022-12-09T11:02:39.015Z,1.20
2022-12-09T11:03:38.834Z,2.32
2022-12-09T11:04:39.335Z,0.16
2022-12-09T11:05:38.777Z,1.28
2022-12-09T11:06:39.134Z,2.00
2022-12-09T11:07:38.726Z,1.20
2022-12-09T11:08:39.048Z,1.68
2022-12-09T11:09:38.845Z,0.36
2022-12-09T11:10:39.150Z,0.48
2022-12-09T11:11:38.812Z,0.52
2022-12-09T11:12:41.023Z,0.24
2022-12-09T11:13:38.537Z,2.32
2022-12-09T11:14:38.990Z,1.32
2022-12-09T11:15:38.924Z,1.76
2022-12-09T11:16:38.586Z,2.88
2022-12-09T11:17:38.568Z,2.24
2022-12-09T11:18:38.835Z,1.92
2022-12-09T11:19:39.110Z,1.68
2022-12-09T11:20:38.674Z,1.48
2022-12-09T11:21:38.683Z,3.48
2022-12-09T11:22:38.532Z,3.92
2022-12-09T11:23:38.564Z,4.00
2022-12-09T11:24:38.644Z,4.08
2022-12-09T11:25:38.510Z,2.64
2022-12-09T11:26:38.628Z,2.20
2022-12-09T11:27:38.810Z,3.96
2022-12-09T11:28:38.587Z,2.20
2022-12-09T11:29:38.463Z,4.76
2022-12-09T11:30:47.116Z,4.08
2022-12-09T11:31:39.933Z,1.92
2022-12-09T11:32:38.441Z,1.24
2022-12-09T11:33:38.477Z,3.72
2022-12-09T11:34:38.775Z,5.12
2022-12-09T11:35:38.356Z,2.48
2022-12-09T11:36:40.585Z,2.76
2022-12-09T11:37:39.221Z,3.16
2022-12-09T11:38:38.211Z,5.16
2022-12-09T11:39:38.177Z,2.40
2022-12-09T11:40:38.165Z,4.00
2022-12-09T11:41:38.157Z,2.28
2022-12-09T11:42:38.187Z,3.64
2022-12-09T11:43:38.126Z,2.96
2022-12-09T11:44:38.120Z,2.48
2022-12-09T11:45:38.097Z,3.04
2022-12-09T11:46:38.123Z,2.80
2022-12-09T11:48:22.577Z,0.84
2022-12-09T11:48:43.620Z,0.56
2022-12-09T11:49:39.096Z,1.88
2022-12-09T11:50:38.081Z,0.48
2022-12-09T11:51:38.020Z,0.96
2022-12-09T11:52:38.027Z,2.36
2022-12-09T11:53:37.996Z,1.68
2022-12-09T11:54:37.998Z,0.64
2022-12-09T11:55:37.988Z,2.36
2022-12-09T11:56:37.983Z,1.56
2022-12-09T11:57:37.948Z,0.76
2022-12-09T11:58:37.939Z,1.48
2022-12-09T11:59:38.501Z,1.44
2022-12-09T12:00:37.909Z,0.76
2022-12-09T12:01:37.951Z,2.44
2022-12-09T12:02:37.917Z,1.84
2022-12-09T12:03:37.871Z,1.60
2022-12-09T12:04:37.859Z,2.08
2022-12-09T12:05:38.090Z,1.92
2022-12-09T12:06:37.890Z,1.44
2022-12-09T12:07:37.831Z,0.44
2022-12-09T12:08:37.910Z,1.12
2022-12-09T12:09:37.822Z,1.32
2022-12-09T12:10:37.813Z,0.52
2022-12-09T12:11:37.759Z,1.44
2022-12-09T12:12:37.761Z,2.40
2022-12-09T12:13:37.737Z,1.16
2022-12-09T12:14:37.732Z,2.24
2022-12-09T12:15:37.723Z,2.00
2022-12-09T12:16:39.664Z,0.84
2022-12-09T12:17:37.723Z,0.60
2022-12-09T12:18:37.683Z,1.52
2022-12-09T12:19:37.662Z,2.48
2022-12-09T12:20:37.662Z,3.24
2022-12-09T12:21:37.642Z,3.12
2022-12-09T12:22:37.624Z,3.88
2022-12-09T12:23:37.604Z,2.00
2022-12-09T12:24:37.615Z,1.36
2022-12-09T12:25:37.584Z,1.88
2022-12-09T12:26:37.567Z,2.04
2022-12-09T12:27:37.562Z,1.72
2022-12-09T12:28:37.563Z,3.64
2022-12-09T12:29:37.534Z,2.88
2022-12-09T12:30:37.534Z,2.32
2022-12-09T12:31:37.533Z,3.32
2022-12-09T12:32:37.503Z,4.64
2022-12-09T12:34:39.687Z,3.40
2022-12-09T12:35:37.454Z,7.40
2022-12-09T12:36:37.468Z,4.32
2022-12-09T12:37:37.445Z,6.44
2022-12-09T12:38:37.443Z,1.52
2022-12-09T12:39:37.425Z,3.76
2022-12-09T12:40:37.399Z,3.56
2022-12-09T12:41:37.380Z,4.76
2022-12-09T12:42:37.365Z,2.40
2022-12-09T12:43:37.343Z,1.16
2022-12-09T12:44:37.335Z,1.56
2022-12-09T12:45:37.336Z,2.60
2022-12-09T12:46:37.324Z,5.88
2022-12-09T12:47:37.314Z,5.20
2022-12-09T12:48:37.336Z,6.32
2022-12-09T12:49:37.294Z,5.68
2022-12-09T12:50:37.258Z,4.72
2022-12-09T12:51:37.246Z,3.64
2022-12-09T12:52:55.393Z,2.92
2022-12-09T12:53:38.208Z,4.20
2022-12-09T12:54:37.237Z,4.76
2022-12-09T12:55:37.191Z,3.04
2022-12-09T12:56:37.238Z,3.52
2022-12-09T12:57:37.458Z,5.60
2022-12-09T12:58:38.109Z,5.32
2022-12-09T12:59:37.141Z,5.68
2022-12-09T13:00:37.368Z,5.96
2022-12-09T13:01:37.272Z,4.96
2022-12-09T13:02:37.359Z,1.80
2022-12-09T13:03:37.100Z,3.16
2022-12-09T13:04:37.089Z,7.12
2022-12-09T13:05:37.057Z,7.32
2022-12-09T13:06:37.069Z,7.52
2022-12-09T13:07:37.041Z,5.84
2022-12-09T13:08:37.031Z,3.16
2022-12-09T13:09:37.020Z,2.24
2022-12-09T13:10:37.002Z,2.32
2022-12-09T13:11:37.000Z,1.96
2022-12-09T13:12:37.010Z,4.44
2022-12-09T13:13:36.961Z,1.56
2022-12-09T13:14:36.970Z,3.32
2022-12-09T13:15:36.943Z,3.56
2022-12-09T13:16:37.885Z,4.84
2022-12-09T13:17:36.935Z,2.68
2022-12-09T13:18:36.908Z,2.96
2022-12-09T13:19:36.892Z,5.88
2022-12-09T13:20:36.883Z,4.52
2022-12-09T13:21:36.862Z,3.76
2022-12-09T13:22:36.849Z,3.76
2022-12-09T13:23:36.840Z,5.36
2022-12-09T13:24:36.822Z,4.00
2022-12-09T13:25:36.805Z,5.60
2022-12-09T13:26:36.794Z,3.80
2022-12-09T13:27:36.802Z,2.28
2022-12-09T13:28:37.730Z,2.96
2022-12-09T13:29:36.748Z,1.92
2022-12-09T13:30:36.769Z,2.80
2022-12-09T13:31:36.726Z,1.68
2022-12-09T13:32:36.733Z,3.32
2022-12-09T13:33:36.709Z,2.88
2022-12-09T13:34:36.694Z,3.80
2022-12-09T13:35:37.634Z,2.44
2022-12-09T13:36:36.951Z,2.16
2022-12-09T13:37:36.643Z,4.48
2022-12-09T13:38:36.638Z,2.88
2022-12-09T13:39:36.674Z,6.32
2022-12-09T13:40:36.682Z,4.00
2022-12-09T13:41:36.625Z,4.00
2022-12-09T13:42:36.596Z,4.48
2022-12-09T13:43:36.579Z,4.12
2022-12-09T13:44:36.546Z,4.16
2022-12-09T13:45:36.547Z,4.40
2022-12-09T13:46:36.572Z,5.12
2022-12-09T13:47:36.551Z,5.84
2022-12-09T13:48:36.496Z,6.28
2022-12-09T13:49:36.496Z,3.84
2022-12-09T13:50:36.467Z,5.52
2022-12-09T13:51:36.468Z,4.60
2022-12-09T13:52:36.456Z,5.28
2022-12-09T13:53:39.996Z,5.12
2022-12-09T13:54:37.439Z,4.32
2022-12-09T13:55:36.421Z,4.24
2022-12-09T13:56:36.419Z,3.72
2022-12-09T13:57:36.399Z,3.28
2022-12-09T13:58:36.379Z,5.12
2022-12-09T13:59:36.389Z,2.76
2022-12-09T14:00:36.368Z,4.28
2022-12-09T14:01:36.333Z,3.52
2022-12-09T14:02:36.394Z,3.88
2022-12-09T14:03:36.354Z,4.72
2022-12-09T14:04:36.310Z,4.24
2022-12-09T14:05:36.285Z,4.00
2022-12-09T14:06:36.261Z,3.32
2022-12-09T14:07:36.260Z,3.16
2022-12-09T14:08:36.260Z,4.52
2022-12-09T14:09:36.231Z,4.32
2022-12-09T14:10:36.217Z,3.20
2022-12-09T14:11:37.179Z,3.08
2022-12-09T14:12:40.924Z,0.84
2022-12-09T14:13:37.188Z,0.60
2022-12-09T14:14:36.163Z,0.00
2022-12-09T14:15:36.177Z,0.72
2022-12-09T14:16:36.165Z,0.60
2022-12-09T14:17:36.131Z,0.36
2022-12-09T14:18:36.139Z,1.72
2022-12-09T14:19:36.101Z,0.16
2022-12-09T14:20:36.088Z,0.48
2022-12-09T14:21:36.070Z,1.20
2022-12-09T14:22:36.073Z,0.68
2022-12-09T14:23:36.170Z,0.56
2022-12-09T14:24:36.030Z,1.16
2022-12-09T14:25:36.034Z,0.72
2022-12-09T14:26:36.010Z,1.92
2022-12-09T14:27:36.005Z,2.44
2022-12-09T14:28:35.985Z,2.68
2022-12-09T14:29:35.993Z,3.28
2022-12-09T14:30:35.973Z,3.56
2022-12-09T14:31:36.060Z,4.20
2022-12-09T14:32:35.933Z,3.52
2022-12-09T14:33:35.925Z,3.92
2022-12-09T14:34:35.914Z,3.84
2022-12-09T14:35:35.928Z,3.56
2022-12-09T14:36:35.872Z,4.96
2022-12-09T14:37:35.869Z,4.16
2022-12-09T14:38:37.463Z,4.00
2022-12-09T14:39:35.912Z,5.40
2022-12-09T14:40:35.829Z,4.28
2022-12-09T14:41:35.812Z,4.88
2022-12-09T14:42:35.804Z,4.24
2022-12-09T14:43:35.797Z,6.00
2022-12-09T14:44:35.768Z,3.92
2022-12-09T14:45:35.771Z,4.68
2022-12-09T14:46:35.804Z,6.36
2022-12-09T14:47:35.763Z,7.68
2022-12-09T14:48:35.727Z,9.24
2022-12-09T14:49:42.780Z,8.28
2022-12-09T14:50:36.706Z,7.92
2022-12-09T14:51:35.696Z,7.48
2022-12-09T14:52:35.666Z,7.28
2022-12-09T14:53:35.675Z,6.24
2022-12-09T14:54:35.637Z,5.32
2022-12-09T14:55:35.642Z,4.76
2022-12-09T14:56:35.645Z,5.12
2022-12-09T14:57:35.619Z,5.28
2022-12-09T14:58:35.598Z,5.16
2022-12-09T14:59:36.555Z,6.32
2022-12-09T15:00:35.579Z,3.84
2022-12-09T15:01:35.656Z,4.44
2022-12-09T15:02:35.623Z,5.56
2022-12-09T15:03:44.904Z,4.28
2022-12-09T15:04:36.584Z,3.20
2022-12-09T15:05:35.509Z,2.44
2022-12-09T15:06:35.732Z,1.60
2022-12-09T15:07:35.484Z,1.84
2022-12-09T15:08:35.476Z,3.40
2022-12-09T15:09:35.462Z,2.44
2022-12-09T15:10:35.450Z,1.40
2022-12-09T15:11:35.674Z,0.64
2022-12-09T15:12:35.428Z,2.44
2022-12-09T15:13:35.418Z,2.20
2022-12-09T15:14:35.392Z,1.72
2022-12-09T15:15:35.390Z,1.44
2022-12-09T15:16:35.372Z,1.40
2022-12-09T15:17:35.356Z,0.72
2022-12-09T15:18:35.362Z,1.36
2022-12-09T15:20:12.058Z,1.64
2022-12-09T15:20:36.317Z,2.72
2022-12-09T15:21:35.302Z,2.92
2022-12-09T15:22:35.293Z,2.32
2022-12-09T15:23:35.283Z,1.20
2022-12-09T15:24:49.619Z,2.72
2022-12-09T15:25:36.255Z,3.72
2022-12-09T15:26:35.229Z,2.20
2022-12-09T15:27:35.227Z,1.48
2022-12-09T15:28:35.236Z,6.44
2022-12-09T15:29:35.207Z,1.92
2022-12-09T15:30:35.194Z,4.12
2022-12-09T15:31:35.235Z,5.40
2022-12-09T15:32:36.114Z,2.92
2022-12-09T15:33:35.173Z,2.76
2022-12-09T15:34:35.938Z,4.36
2022-12-09T15:35:35.134Z,5.08
2022-12-09T15:36:35.355Z,2.32
2022-12-09T15:37:35.096Z,3.68
2022-12-09T15:38:40.537Z,3.92
2022-12-09T15:39:36.084Z,5.08
2022-12-09T15:40:35.069Z,3.80
2022-12-09T15:41:35.049Z,3.44
2022-12-09T15:42:35.026Z,2.88
2022-12-09T15:43:35.043Z,4.00
2022-12-09T15:44:35.959Z,6.32
2022-12-09T15:45:35.967Z,2.76
2022-12-09T15:46:35.024Z,3.56
2022-12-09T15:47:34.979Z,3.96
2022-12-09T15:48:34.959Z,6.72
2022-12-09T15:49:35.186Z,6.48
2022-12-09T15:50:34.925Z,7.60
2022-12-09T15:51:34.928Z,5.84
2022-12-09T15:52:35.999Z,8.00
2022-12-09T15:53:34.905Z,4.08
2022-12-09T15:54:34.878Z,9.40